sensor_id;sensor_type;location;lat;lon;timestamp;P1;durP1;ratioP1;P2;durP2;ratioP2
14167;SDS011;7163;50.626;12.922;2023-02-01T00:04:36;18.63;;;9.63;;
14167;SDS011;7163;50.626;12.922;2023-02-01T00:09:37;26.30;;;10.73;;
14167;SDS011;7163;50.626;12.922;2023-02-01T00:14:37;18.03;;;10.93;;
14167;SDS011;7163;50.626;12.922;2023-02-01T00:19:39;21.97;;;9.40;;
14167;SDS011;7163;50.626;12.922;2023-02-01T00:24:39;19.53;;;8.83;;
14167;SDS011;7163;50.626;12.922;2023-02-01T00:29:40;20.67;;;8.93;;
14167;SDS011;7163;50.626;12.922;2023-02-01T00:34:41;15.43;;;8.37;;
14167;SDS011;7163;50.626;12.922;2023-02-01T00:39:41;17.73;;;8.23;;
14167;SDS011;7163;50.626;12.922;2023-02-01T00:44:41;22.10;;;9.17;;
14167;SDS011;7163;50.626;12.922;2023-02-01T00:49:42;18.83;;;9.00;;
14167;SDS011;7163;50.626;12.922;2023-02-01T00:54:42;19.63;;;9.27;;
14167;SDS011;7163;50.626;12.922;2023-02-01T00:59:43;20.07;;;8.83;;
14167;SDS011;7163;50.626;12.922;2023-02-01T01:04:44;26.93;;;10.10;;
14167;SDS011;7163;50.626;12.922;2023-02-01T01:09:45;18.10;;;7.80;;
14167;SDS011;7163;50.626;12.922;2023-02-01T01:14:45;19.50;;;9.17;;
14167;SDS011;7163;50.626;12.922;2023-02-01T01:19:45;19.97;;;8.37;;
14167;SDS011;7163;50.626;12.922;2023-02-01T01:24:46;15.53;;;8.20;;
14167;SDS011;7163;50.626;12.922;2023-02-01T01:29:46;19.10;;;7.93;;
14167;SDS011;7163;50.626;12.922;2023-02-01T01:34:47;20.40;;;9.10;;
14167;SDS011;7163;50.626;12.922;2023-02-01T01:39:47;18.40;;;7.30;;
14167;SDS011;7163;50.626;12.922;2023-02-01T01:49:58;20.10;;;8.13;;
14167;SDS011;7163;50.626;12.922;2023-02-01T01:54:58;22.17;;;8.17;;
14167;SDS011;7163;50.626;12.922;2023-02-01T02:00:00;20.47;;;8.23;;
14167;SDS011;7163;50.626;12.922;2023-02-01T02:05:08;16.50;;;7.73;;
14167;SDS011;7163;50.626;12.922;2023-02-01T02:10:11;23.83;;;8.57;;
14167;SDS011;7163;50.626;12.922;2023-02-01T02:15:13;25.00;;;8.93;;
14167;SDS011;7163;50.626;12.922;2023-02-01T02:20:20;24.80;;;9.23;;
14167;SDS011;7163;50.626;12.922;2023-02-01T02:36:30;37.23;;;10.37;;
14167;SDS011;7163;50.626;12.922;2023-02-01T02:47:36;29.50;;;7.43;;
14167;SDS011;7163;50.626;12.922;2023-02-01T02:53:15;25.17;;;8.00;;
14167;SDS011;7163;50.626;12.922;2023-02-01T02:58:56;22.43;;;7.47;;
14167;SDS011;7163;50.626;12.922;2023-02-01T03:04:16;28.30;;;8.23;;
14167;SDS011;7163;50.626;12.922;2023-02-01T03:09:23;31.60;;;9.63;;
14167;SDS011;7163;50.626;12.922;2023-02-01T03:14:27;29.70;;;8.30;;
14167;SDS011;7163;50.626;12.922;2023-02-01T03:19:29;23.10;;;8.17;;
14167;SDS011;7163;50.626;12.922;2023-02-01T03:24:33;23.67;;;8.53;;
14167;SDS011;7163;50.626;12.922;2023-02-01T03:29:38;24.03;;;8.17;;
14167;SDS011;7163;50.626;12.922;2023-02-01T03:34:42;26.50;;;10.33;;
14167;SDS011;7163;50.626;12.922;2023-02-01T03:50:15;30.67;;;11.37;;
14167;SDS011;7163;50.626;12.922;2023-02-01T03:55:18;29.57;;;9.70;;
14167;SDS011;7163;50.626;12.922;2023-02-01T04:00:23;18.63;;;7.80;;
14167;SDS011;7163;50.626;12.922;2023-02-01T04:05:25;17.63;;;7.13;;
14167;SDS011;7163;50.626;12.922;2023-02-01T04:10:26;28.93;;;7.90;;
14167;SDS011;7163;50.626;12.922;2023-02-01T04:15:27;22.37;;;8.67;;
14167;SDS011;7163;50.626;12.922;2023-02-01T04:20:27;21.60;;;8.13;;
14167;SDS011;7163;50.626;12.922;2023-02-01T04:25:28;22.87;;;7.50;;
14167;SDS011;7163;50.626;12.922;2023-02-01T04:30:29;29.50;;;8.27;;
14167;SDS011;7163;50.626;12.922;2023-02-01T04:35:30;26.93;;;8.67;;
14167;SDS011;7163;50.626;12.922;2023-02-01T04:40:32;27.17;;;8.70;;
14167;SDS011;7163;50.626;12.922;2023-02-01T04:45:33;23.80;;;8.33;;
14167;SDS011;7163;50.626;12.922;2023-02-01T04:50:33;23.77;;;8.10;;
14167;SDS011;7163;50.626;12.922;2023-02-01T04:55:34;26.40;;;8.23;;
14167;SDS011;7163;50.626;12.922;2023-02-01T05:00:34;28.97;;;10.03;;
14167;SDS011;7163;50.626;12.922;2023-02-01T05:05:35;25.90;;;10.20;;
14167;SDS011;7163;50.626;12.922;2023-02-01T05:10:35;21.63;;;9.30;;
14167;SDS011;7163;50.626;12.922;2023-02-01T05:15:35;28.30;;;10.20;;
14167;SDS011;7163;50.626;12.922;2023-02-01T05:20:36;25.40;;;9.37;;
14167;SDS011;7163;50.626;12.922;2023-02-01T05:25:36;26.33;;;8.63;;
14167;SDS011;7163;50.626;12.922;2023-02-01T05:30:37;28.60;;;7.57;;
14167;SDS011;7163;50.626;12.922;2023-02-01T05:35:37;16.77;;;7.53;;
14167;SDS011;7163;50.626;12.922;2023-02-01T05:40:37;19.43;;;7.63;;
14167;SDS011;7163;50.626;12.922;2023-02-01T05:45:38;20.03;;;7.90;;
14167;SDS011;7163;50.626;12.922;2023-02-01T05:50:38;22.40;;;7.40;;
14167;SDS011;7163;50.626;12.922;2023-02-01T05:55:39;24.37;;;8.00;;
14167;SDS011;7163;50.626;12.922;2023-02-01T06:00:41;17.33;;;8.13;;
14167;SDS011;7163;50.626;12.922;2023-02-01T06:05:44;21.90;;;8.47;;
14167;SDS011;7163;50.626;12.922;2023-02-01T06:10:45;17.93;;;7.87;;
14167;SDS011;7163;50.626;12.922;2023-02-01T06:15:45;18.73;;;8.20;;
14167;SDS011;7163;50.626;12.922;2023-02-01T06:20:51;20.03;;;8.17;;
14167;SDS011;7163;50.626;12.922;2023-02-01T06:26:02;21.33;;;7.67;;
14167;SDS011;7163;50.626;12.922;2023-02-01T06:31:04;22.87;;;8.57;;
14167;SDS011;7163;50.626;12.922;2023-02-01T06:36:06;22.37;;;8.93;;
14167;SDS011;7163;50.626;12.922;2023-02-01T06:41:09;26.10;;;9.17;;
14167;SDS011;7163;50.626;12.922;2023-02-01T06:46:11;24.67;;;9.67;;
14167;SDS011;7163;50.626;12.922;2023-02-01T06:51:18;30.57;;;9.63;;
14167;SDS011;7163;50.626;12.922;2023-02-01T06:56:19;33.60;;;10.60;;
14167;SDS011;7163;50.626;12.922;2023-02-01T07:01:20;31.77;;;11.17;;
14167;SDS011;7163;50.626;12.922;2023-02-01T07:06:20;43.67;;;12.53;;
14167;SDS011;7163;50.626;12.922;2023-02-01T07:11:21;28.17;;;10.73;;
14167;SDS011;7163;50.626;12.922;2023-02-01T07:16:21;20.00;;;10.10;;
14167;SDS011;7163;50.626;12.922;2023-02-01T07:21:22;30.00;;;9.80;;
14167;SDS011;7163;50.626;12.922;2023-02-01T07:26:22;29.33;;;10.93;;
14167;SDS011;7163;50.626;12.922;2023-02-01T07:31:23;26.13;;;11.57;;
14167;SDS011;7163;50.626;12.922;2023-02-01T07:36:26;29.97;;;10.53;;
14167;SDS011;7163;50.626;12.922;2023-02-01T07:41:26;32.13;;;10.97;;
14167;SDS011;7163;50.626;12.922;2023-02-01T07:46:27;23.07;;;9.50;;
14167;SDS011;7163;50.626;12.922;2023-02-01T07:51:27;23.40;;;10.17;;
14167;SDS011;7163;50.626;12.922;2023-02-01T07:56:27;26.50;;;9.27;;
14167;SDS011;7163;50.626;12.922;2023-02-01T08:01:28;30.13;;;8.87;;
14167;SDS011;7163;50.626;12.922;2023-02-01T08:06:30;24.17;;;8.83;;
14167;SDS011;7163;50.626;12.922;2023-02-01T08:11:33;24.87;;;8.70;;
14167;SDS011;7163;50.626;12.922;2023-02-01T08:16:36;24.10;;;8.33;;
14167;SDS011;7163;50.626;12.922;2023-02-01T08:21:37;29.10;;;10.30;;
14167;SDS011;7163;50.626;12.922;2023-02-01T08:26:38;18.37;;;7.57;;
14167;SDS011;7163;50.626;12.922;2023-02-01T08:31:38;28.37;;;7.87;;
14167;SDS011;7163;50.626;12.922;2023-02-01T08:36:46;25.27;;;7.23;;
14167;SDS011;7163;50.626;12.922;2023-02-01T08:41:46;16.20;;;7.00;;
14167;SDS011;7163;50.626;12.922;2023-02-01T08:47:07;29.63;;;6.60;;
14167;SDS011;7163;50.626;12.922;2023-02-01T08:52:07;21.73;;;7.00;;
14167;SDS011;7163;50.626;12.922;2023-02-01T08:57:07;24.00;;;7.40;;
14167;SDS011;7163;50.626;12.922;2023-02-01T09:02:15;25.97;;;7.40;;
14167;SDS011;7163;50.626;12.922;2023-02-01T09:07:17;21.67;;;7.33;;
14167;SDS011;7163;50.626;12.922;2023-02-01T09:12:18;20.43;;;7.10;;
14167;SDS011;7163;50.626;12.922;2023-02-01T09:17:18;16.87;;;7.23;;
14167;SDS011;7163;50.626;12.922;2023-02-01T09:22:18;26.13;;;7.63;;
14167;SDS011;7163;50.626;12.922;2023-02-01T09:27:19;25.20;;;7.97;;
14167;SDS011;7163;50.626;12.922;2023-02-01T09:32:20;27.87;;;8.20;;
14167;SDS011;7163;50.626;12.922;2023-02-01T09:37:22;24.03;;;8.67;;
14167;SDS011;7163;50.626;12.922;2023-02-01T09:42:33;22.43;;;8.27;;
14167;SDS011;7163;50.626;12.922;2023-02-01T09:47:51;34.33;;;10.13;;
14167;SDS011;7163;50.626;12.922;2023-02-01T09:52:55;18.00;;;7.20;;
14167;SDS011;7163;50.626;12.922;2023-02-01T09:58:01;25.57;;;8.60;;
14167;SDS011;7163;50.626;12.922;2023-02-01T10:03:04;24.53;;;9.07;;
14167;SDS011;7163;50.626;12.922;2023-02-01T10:13:45;38.83;;;9.37;;
14167;SDS011;7163;50.626;12.922;2023-02-01T10:19:20;26.60;;;10.10;;
14167;SDS011;7163;50.626;12.922;2023-02-01T10:29:37;19.20;;;9.33;;
14167;SDS011;7163;50.626;12.922;2023-02-01T10:34:39;27.57;;;9.17;;
14167;SDS011;7163;50.626;12.922;2023-02-01T10:39:41;34.83;;;10.00;;
14167;SDS011;7163;50.626;12.922;2023-02-01T10:44:43;31.73;;;10.40;;
14167;SDS011;7163;50.626;12.922;2023-02-01T10:50:02;29.30;;;9.43;;
14167;SDS011;7163;50.626;12.922;2023-02-01T11:00:43;35.37;;;11.23;;
14167;SDS011;7163;50.626;12.922;2023-02-01T11:05:45;24.10;;;8.97;;
14167;SDS011;7163;50.626;12.922;2023-02-01T11:10:46;23.83;;;8.53;;
14167;SDS011;7163;50.626;12.922;2023-02-01T11:15:47;31.97;;;9.23;;
14167;SDS011;7163;50.626;12.922;2023-02-01T11:20:58;22.20;;;9.00;;
14167;SDS011;7163;50.626;12.922;2023-02-01T11:26:00;28.77;;;9.03;;
14167;SDS011;7163;50.626;12.922;2023-02-01T11:31:05;25.00;;;8.63;;
14167;SDS011;7163;50.626;12.922;2023-02-01T11:36:10;24.57;;;7.87;;
14167;SDS011;7163;50.626;12.922;2023-02-01T11:41:23;23.30;;;8.40;;
14167;SDS011;7163;50.626;12.922;2023-02-01T11:46:30;15.63;;;7.30;;
14167;SDS011;7163;50.626;12.922;2023-02-01T11:51:36;24.27;;;7.27;;
14167;SDS011;7163;50.626;12.922;2023-02-01T11:56:59;21.53;;;7.50;;
14167;SDS011;7163;50.626;12.922;2023-02-01T12:02:27;14.30;;;7.40;;
14167;SDS011;7163;50.626;12.922;2023-02-01T12:13:02;16.20;;;7.23;;
14167;SDS011;7163;50.626;12.922;2023-02-01T12:18:34;15.10;;;7.03;;
14167;SDS011;7163;50.626;12.922;2023-02-01T12:23:45;20.17;;;8.27;;
14167;SDS011;7163;50.626;12.922;2023-02-01T12:29:07;20.10;;;7.23;;
14167;SDS011;7163;50.626;12.922;2023-02-01T12:34:22;27.90;;;8.33;;
14167;SDS011;7163;50.626;12.922;2023-02-01T12:39:42;20.63;;;9.47;;
14167;SDS011;7163;50.626;12.922;2023-02-01T12:44:53;28.87;;;8.67;;
14167;SDS011;7163;50.626;12.922;2023-02-01T12:55:36;17.03;;;7.33;;
14167;SDS011;7163;50.626;12.922;2023-02-01T13:00:45;16.00;;;6.90;;
14167;SDS011;7163;50.626;12.922;2023-02-01T13:11:20;22.43;;;7.13;;
14167;SDS011;7163;50.626;12.922;2023-02-01T13:16:34;15.57;;;7.97;;
14167;SDS011;7163;50.626;12.922;2023-02-01T13:21:39;27.70;;;7.93;;
14167;SDS011;7163;50.626;12.922;2023-02-01T13:26:42;13.37;;;7.50;;
14167;SDS011;7163;50.626;12.922;2023-02-01T13:42:23;15.30;;;7.17;;
14167;SDS011;7163;50.626;12.922;2023-02-01T13:47:28;15.83;;;7.50;;
14167;SDS011;7163;50.626;12.922;2023-02-01T13:52:37;18.13;;;7.60;;
14167;SDS011;7163;50.626;12.922;2023-02-01T13:57:40;22.07;;;8.80;;
14167;SDS011;7163;50.626;12.922;2023-02-01T14:13:11;25.27;;;7.53;;
14167;SDS011;7163;50.626;12.922;2023-02-01T14:23:38;15.63;;;7.90;;
14167;SDS011;7163;50.626;12.922;2023-02-01T14:29:01;21.60;;;8.30;;
14167;SDS011;7163;50.626;12.922;2023-02-01T14:34:18;13.70;;;7.47;;
14167;SDS011;7163;50.626;12.922;2023-02-01T14:39:25;27.50;;;9.13;;
14167;SDS011;7163;50.626;12.922;2023-02-01T14:44:29;19.30;;;8.43;;
14167;SDS011;7163;50.626;12.922;2023-02-01T14:55:06;22.90;;;8.97;;
14167;SDS011;7163;50.626;12.922;2023-02-01T15:00:30;22.40;;;8.13;;
14167;SDS011;7163;50.626;12.922;2023-02-01T15:05:31;26.00;;;9.60;;
14167;SDS011;7163;50.626;12.922;2023-02-01T15:10:39;19.17;;;8.13;;
14167;SDS011;7163;50.626;12.922;2023-02-01T15:15:42;20.97;;;8.60;;
14167;SDS011;7163;50.626;12.922;2023-02-01T15:20:43;25.33;;;9.03;;
14167;SDS011;7163;50.626;12.922;2023-02-01T15:25:56;25.33;;;9.10;;
14167;SDS011;7163;50.626;12.922;2023-02-01T15:31:00;26.00;;;8.70;;
14167;SDS011;7163;50.626;12.922;2023-02-01T15:46:22;26.77;;;10.73;;
14167;SDS011;7163;50.626;12.922;2023-02-01T15:51:29;28.03;;;9.67;;
14167;SDS011;7163;50.626;12.922;2023-02-01T15:56:33;23.50;;;8.37;;
14167;SDS011;7163;50.626;12.922;2023-02-01T16:01:38;23.17;;;8.27;;
14167;SDS011;7163;50.626;12.922;2023-02-01T16:06:44;24.73;;;8.43;;
14167;SDS011;7163;50.626;12.922;2023-02-01T16:12:00;19.00;;;8.57;;
14167;SDS011;7163;50.626;12.922;2023-02-01T16:17:01;20.97;;;7.77;;
14167;SDS011;7163;50.626;12.922;2023-02-01T16:22:02;21.03;;;8.13;;
14167;SDS011;7163;50.626;12.922;2023-02-01T16:27:03;19.10;;;7.90;;
14167;SDS011;7163;50.626;12.922;2023-02-01T16:32:05;24.50;;;8.23;;
14167;SDS011;7163;50.626;12.922;2023-02-01T16:37:05;23.37;;;7.83;;
14167;SDS011;7163;50.626;12.922;2023-02-01T16:42:12;30.87;;;9.73;;
14167;SDS011;7163;50.626;12.922;2023-02-01T16:47:18;26.37;;;7.87;;
14167;SDS011;7163;50.626;12.922;2023-02-01T16:52:22;23.80;;;8.27;;
14167;SDS011;7163;50.626;12.922;2023-02-01T16:57:24;24.87;;;8.20;;
14167;SDS011;7163;50.626;12.922;2023-02-01T17:02:25;16.10;;;7.80;;
14167;SDS011;7163;50.626;12.922;2023-02-01T17:07:26;26.37;;;7.67;;
14167;SDS011;7163;50.626;12.922;2023-02-01T17:12:28;16.30;;;7.00;;
14167;SDS011;7163;50.626;12.922;2023-02-01T17:17:32;21.90;;;7.70;;
14167;SDS011;7163;50.626;12.922;2023-02-01T17:22:34;26.73;;;7.47;;
14167;SDS011;7163;50.626;12.922;2023-02-01T17:27:35;17.67;;;6.73;;
14167;SDS011;7163;50.626;12.922;2023-02-01T17:32:36;18.00;;;8.10;;
14167;SDS011;7163;50.626;12.922;2023-02-01T17:37:38;11.27;;;3.60;;
14167;SDS011;7163;50.626;12.922;2023-02-01T17:42:38;6.87;;;4.60;;
14167;SDS011;7163;50.626;12.922;2023-02-01T17:47:39;9.33;;;6.50;;
14167;SDS011;7163;50.626;12.922;2023-02-01T17:52:39;7.07;;;4.27;;
14167;SDS011;7163;50.626;12.922;2023-02-01T17:57:40;6.23;;;4.00;;
14167;SDS011;7163;50.626;12.922;2023-02-01T18:02:40;5.00;;;3.10;;
14167;SDS011;7163;50.626;12.922;2023-02-01T18:07:41;5.60;;;2.93;;
14167;SDS011;7163;50.626;12.922;2023-02-01T18:12:42;21.53;;;8.43;;
14167;SDS011;7163;50.626;12.922;2023-02-01T18:17:42;6.00;;;3.63;;
14167;SDS011;7163;50.626;12.922;2023-02-01T18:22:43;5.00;;;3.10;;
14167;SDS011;7163;50.626;12.922;2023-02-01T18:27:44;4.93;;;3.30;;
14167;SDS011;7163;50.626;12.922;2023-02-01T18:32:44;6.83;;;3.37;;
14167;SDS011;7163;50.626;12.922;2023-02-01T18:37:46;6.50;;;3.80;;
14167;SDS011;7163;50.626;12.922;2023-02-01T18:42:49;7.00;;;4.90;;
14167;SDS011;7163;50.626;12.922;2023-02-01T18:47:49;11.10;;;5.10;;
14167;SDS011;7163;50.626;12.922;2023-02-01T18:52:54;12.23;;;7.47;;
14167;SDS011;7163;50.626;12.922;2023-02-01T18:57:58;9.03;;;6.40;;
14167;SDS011;7163;50.626;12.922;2023-02-01T19:02:59;14.60;;;7.03;;
14167;SDS011;7163;50.626;12.922;2023-02-01T19:08:00;7.20;;;4.50;;
14167;SDS011;7163;50.626;12.922;2023-02-01T19:13:00;11.17;;;6.33;;
14167;SDS011;7163;50.626;12.922;2023-02-01T19:18:00;13.27;;;5.90;;
14167;SDS011;7163;50.626;12.922;2023-02-01T19:23:01;11.00;;;5.47;;
14167;SDS011;7163;50.626;12.922;2023-02-01T19:28:01;8.40;;;5.33;;
14167;SDS011;7163;50.626;12.922;2023-02-01T19:33:02;10.67;;;6.60;;
14167;SDS011;7163;50.626;12.922;2023-02-01T19:38:03;14.20;;;6.93;;
14167;SDS011;7163;50.626;12.922;2023-02-01T19:43:03;13.30;;;7.13;;
14167;SDS011;7163;50.626;12.922;2023-02-01T19:48:04;12.03;;;6.80;;
14167;SDS011;7163;50.626;12.922;2023-02-01T19:53:06;15.53;;;7.80;;
14167;SDS011;7163;50.626;12.922;2023-02-01T19:58:07;14.97;;;7.63;;
14167;SDS011;7163;50.626;12.922;2023-02-01T20:03:08;16.23;;;8.50;;
14167;SDS011;7163;50.626;12.922;2023-02-01T20:08:09;16.67;;;9.17;;
14167;SDS011;7163;50.626;12.922;2023-02-01T20:13:10;17.13;;;9.20;;
14167;SDS011;7163;50.626;12.922;2023-02-01T20:18:10;14.63;;;8.83;;
14167;SDS011;7163;50.626;12.922;2023-02-01T20:23:11;14.13;;;7.70;;
14167;SDS011;7163;50.626;12.922;2023-02-01T20:28:11;16.83;;;7.70;;
14167;SDS011;7163;50.626;12.922;2023-02-01T20:54:01;18.30;;;7.33;;
14167;SDS011;7163;50.626;12.922;2023-02-01T20:59:01;16.20;;;6.83;;
14167;SDS011;7163;50.626;12.922;2023-02-01T21:04:02;15.63;;;7.70;;
14167;SDS011;7163;50.626;12.922;2023-02-01T21:09:02;15.90;;;7.37;;
14167;SDS011;7163;50.626;12.922;2023-02-01T21:14:03;13.83;;;7.37;;
14167;SDS011;7163;50.626;12.922;2023-02-01T21:19:04;17.07;;;8.70;;
14167;SDS011;7163;50.626;12.922;2023-02-01T21:24:04;20.50;;;8.10;;
14167;SDS011;7163;50.626;12.922;2023-02-01T21:29:06;17.27;;;7.23;;
14167;SDS011;7163;50.626;12.922;2023-02-01T21:34:08;17.30;;;7.03;;
14167;SDS011;7163;50.626;12.922;2023-02-01T21:39:09;18.47;;;7.00;;
14167;SDS011;7163;50.626;12.922;2023-02-01T21:44:11;25.23;;;9.10;;
14167;SDS011;7163;50.626;12.922;2023-02-01T21:49:13;15.23;;;7.53;;
14167;SDS011;7163;50.626;12.922;2023-02-01T21:54:14;17.50;;;8.10;;
14167;SDS011;7163;50.626;12.922;2023-02-01T21:59:14;17.70;;;7.80;;
14167;SDS011;7163;50.626;12.922;2023-02-01T22:04:17;16.13;;;6.90;;
14167;SDS011;7163;50.626;12.922;2023-02-01T22:09:19;14.00;;;6.90;;
14167;SDS011;7163;50.626;12.922;2023-02-01T22:14:22;19.97;;;7.70;;
14167;SDS011;7163;50.626;12.922;2023-02-01T22:19:22;18.53;;;8.57;;
14167;SDS011;7163;50.626;12.922;2023-02-01T22:24:23;16.40;;;6.97;;
14167;SDS011;7163;50.626;12.922;2023-02-01T22:29:23;13.77;;;7.20;;
14167;SDS011;7163;50.626;12.922;2023-02-01T22:34:25;12.57;;;6.30;;
14167;SDS011;7163;50.626;12.922;2023-02-01T22:39:26;13.67;;;6.40;;
14167;SDS011;7163;50.626;12.922;2023-02-01T22:44:26;17.63;;;7.00;;
14167;SDS011;7163;50.626;12.922;2023-02-01T22:49:26;13.67;;;7.13;;
14167;SDS011;7163;50.626;12.922;2023-02-01T22:54:27;14.00;;;7.27;;
14167;SDS011;7163;50.626;12.922;2023-02-01T22:59:27;14.97;;;7.23;;
14167;SDS011;7163;50.626;12.922;2023-02-01T23:04:30;16.03;;;7.70;;
14167;SDS011;7163;50.626;12.922;2023-02-01T23:09:30;16.90;;;7.47;;
14167;SDS011;7163;50.626;12.922;2023-02-01T23:14:31;15.50;;;7.07;;
14167;SDS011;7163;50.626;12.922;2023-02-01T23:19:31;15.97;;;7.40;;
14167;SDS011;7163;50.626;12.922;2023-02-01T23:24:31;22.53;;;7.67;;
14167;SDS011;7163;50.626;12.922;2023-02-01T23:29:32;14.90;;;7.00;;
14167;SDS011;7163;50.626;12.922;2023-02-01T23:34:32;16.30;;;6.57;;
14167;SDS011;7163;50.626;12.922;2023-02-01T23:39:33;22.37;;;6.87;;
14167;SDS011;7163;50.626;12.922;2023-02-01T23:44:33;16.53;;;6.97;;
14167;SDS011;7163;50.626;12.922;2023-02-01T23:49:34;14.33;;;6.20;;
14167;SDS011;7163;50.626;12.922;2023-02-01T23:54:34;22.03;;;7.90;;
14167;SDS011;7163;50.626;12.922;2023-02-01T23:59:35;19.70;;;7.10;;
